Date,TemperatureHighF,TemperatureAvgF,TemperatureLowF,DewpointHighF,DewpointAvgF,DewpointLowF,HumidityHigh,HumidityAvg,HumidityLow,PressureMaxIn,PressureMinIn,WindSpeedMaxMPH,WindSpeedAvgMPH,GustSpeedMaxMPH,PrecipitationSumIn
2013-1-1,12,4,-3,5,0,-7,89,82,71,30.31,30.20,6,4,7,0.00
2013-1-2,9,-2,-9,4,-6,-13,88,83,79,30.32,30.27,5,3,7,0.00
2013-1-3,7,0,-7,1,-4,-11,89,82,74,30.34,30.29,6,3,9,0.00
2013-1-4,15,-1,-9,6,-6,-13,85,79,67,30.31,30.24,5,2,10,0.00
2013-1-5,13,-1,-13,4,-6,-18,86,78,62,30.35,30.22,6,3,7,0.00
2013-1-6,20,11,0,12,5,-4,84,75,62,30.18,30.02,7,4,11,0.00
2013-1-7,17,9,-1,11,4,-5,89,80,68,30.17,30.06,7,4,11,0.00
2013-1-8,30,20,15,20,14,10,86,78,62,30.33,30.14,9,6,12,0.00
2013-1-9,36,21,5,23,15,3,91,78,58,30.32,29.91,10,7,12,0.00
2013-1-10,43,34,21,29,25,19,95,70,44,29.88,29.57,11,8,19,0.00
2013-1-11,21,17,12,15,11,7,92,79,60,29.92,29.65,7,5,10,0.00
2013-1-12,15,10,5,10,6,2,89,86,78,30.02,29.91,6,4,7,0.00
2013-1-13,20,2,-9,1,-4,-14,85,74,44,30.09,30.01,5,2,7,0.00
2013-1-14,3,-6,-12,-6,-12,-18,82,73,54,30.29,30.13,6,4,7,0.00
2013-1-15,12,5,-3,5,-3,-8,79,71,57,30.48,30.30,6,5,9,0.00
2013-1-16,17,11,5,8,4,-1,90,74,59,30.52,30.46,6,2,6,0.00
2013-1-17,19,4,-3,8,0,-8,90,83,61,30.50,30.39,5,3,6,0.00
2013-1-18,9,2,-6,6,-2,-10,88,85,80,30.42,30.33,5,2,6,0.00
2013-1-19,22,6,-4,14,2,-9,90,83,71,30.44,30.35,5,2,6,0.00
2013-1-20,16,6,-4,8,2,-8,90,83,66,30.39,30.33,5,2,6,0.00
2013-1-21,18,7,-5,11,2,-9,89,82,71,30.39,30.31,6,3,6,0.00
2013-1-22,23,10,-1,11,4,-4,90,78,61,30.33,30.24,7,3,9,0.00
2013-1-23,32,17,5,21,9,1,85,72,50,30.26,30.21,7,5,9,0.00
2013-1-24,41,37,36,34,32,22,90,82,48,30.25,30.19,5,3,8,0.00
2013-1-26,36,34,33,34,33,32,98,95,88,29.92,29.87,5,4,6,0.00
2013-1-27,38,33,27,33,30,26,98,91,76,29.88,29.75,10,6,14,0.00
2013-1-28,31,22,17,25,18,11,97,84,58,29.97,29.86,7,4,9,0.00
2013-1-29,26,20,14,22,17,9,95,88,79,30.13,29.90,5,4,6,0.00
2013-1-30,32,26,20,28,24,19,95,90,83,30.22,30.16,5,3,7,0.00
2013-1-31,37,28,20,29,23,17,95,82,65,30.30,30.24,6,5,7,0.00
2013-2-1,33,23,14,24,18,11,93,82,67,30.33,30.23,6,5,8,0.00
2013-2-2,32,22,9,22,16,5,90,80,66,30.41,30.30,5,3,7,0.00
2013-2-3,36,25,18,25,20,14,90,80,59,30.28,30.11,5,3,6,0.00
2013-2-4,33,23,12,26,16,7,83,75,62,30.19,30.12,5,5,7,0.00
2013-2-5,37,27,18,27,19,11,81,71,55,30.13,29.92,6,4,8,0.00
2013-2-6,45,32,23,26,23,20,90,71,40,30.14,29.90,6,3,9,0.00
2013-2-7,40,26,12,22,15,5,80,63,45,30.15,29.90,5,5,7,0.00
2013-2-8,36,30,24,31,24,18,98,79,57,29.88,29.70,10,5,19,0.00
2013-2-9,28,24,20,25,22,19,96,92,85,29.85,29.70,5,4,8,0.00
2013-2-10,29,22,16,21,19,14,95,87,69,29.97,29.85,5,3,7,0.00
2013-2-11,30,20,8,20,15,6,95,83,57,30.16,29.98,4,1,5,0.00
2013-2-12,25,16,3,18,10,-1,85,76,67,30.29,30.19,5,4,7,0.00
2013-2-13,34,28,21,24,21,17,87,76,61,30.28,30.20,5,4,7,0.00
2013-2-14,44,29,18,26,22,14,89,76,49,30.33,30.19,5,3,7,0.00
2013-2-15,36,24,14,24,17,8,84,74,60,30.44,30.34,5,4,6,0.00
2013-2-16,37,26,11,23,16,6,84,69,51,30.40,30.04,5,5,7,0.00
2013-2-17,40,31,24,27,19,14,73,62,38,30.01,29.87,9,6,13,0.00
2013-2-18,40,22,10,17,10,3,77,61,29,30.11,29.95,5,3,7,0.00
2013-2-19,43,34,19,22,16,6,62,48,39,29.92,29.63,8,5,11,0.00
2013-2-20,41,33,27,29,23,19,96,69,45,29.78,29.60,6,2,10,0.00
2013-2-21,34,26,13,27,22,11,96,88,59,30.00,29.79,6,2,9,0.00
2013-2-22,32,20,12,26,15,7,93,80,70,30.10,30.01,4,4,6,0.00
2013-2-23,31,24,16,26,16,10,86,72,59,30.01,29.80,10,5,20,0.00
2013-2-25,35,29,23,17,12,8,65,52,37,30.01,29.95,5,3,8,0.00
2013-2-26,38,22,12,23,16,5,94,79,55,30.24,30.01,5,3,8,0.00
2013-2-27,34,17,3,16,6,-4,75,63,32,30.34,30.26,4,3,5,0.00
2013-2-28,39,23,8,20,12,1,76,61,41,30.40,30.32,5,4,7,0.00
2013-3-1,46,36,30,28,24,20,82,64,45,30.47,30.39,4,3,6,0.00
2013-3-2,50,35,23,30,26,19,89,71,42,30.43,30.12,4,3,6,0.00
2013-3-3,42,38,30,34,31,26,93,76,59,30.08,29.91,4,2,6,0.00
2013-3-4,39,32,21,34,20,9,95,63,40,30.21,29.91,8,4,14,0.00
2013-3-5,46,31,16,24,16,9,76,56,35,30.21,29.99,5,3,7,0.00
2013-3-6,47,39,32,29,24,19,70,55,42,29.99,29.81,9,5,14,0.00
2013-3-7,50,39,29,34,30,28,94,74,44,29.97,29.86,8,3,13,0.00
2013-3-8,41,36,32,35,32,28,96,87,74,29.89,29.71,7,3,9,0.00
2013-3-9,44,36,30,34,29,21,98,77,48,30.17,29.70,11,8,16,0.00
2013-3-10,46,35,23,29,24,17,81,64,42,30.30,30.20,4,3,5,0.00
2013-3-11,51,39,26,32,27,22,86,65,35,30.26,30.13,5,3,5,0.00
2013-3-12,56,44,33,36,30,27,81,62,36,30.27,30.18,5,3,4,0.00
2013-3-13,65,47,32,34,27,12,85,55,13,30.34,30.23,4,3,6,0.00
2013-3-14,72,52,36,33,27,20,73,42,14,30.29,30.16,5,3,4,0.00
2013-3-15,69,55,42,34,28,22,65,39,17,30.16,29.99,6,3,5,0.00
2013-3-16,59,50,39,31,26,21,67,43,23,30.02,29.88,7,3,0,0.00
2013-3-17,54,44,33,28,21,10,66,43,17,30.00,29.83,13,6,4,0.00
2013-3-18,52,40,24,21,14,6,75,40,15,30.09,30.01,8,4,4,0.00
2013-3-19,54,42,33,20,8,-17,58,30,5,30.19,30.05,4,2,4,0.00
2013-3-20,60,48,34,40,24,15,87,42,21,30.13,29.86,10,4,6,0.00
2013-3-21,44,39,32,37,22,0,94,57,15,29.99,29.81,13,6,13,0.00
2013-3-22,37,30,22,28,18,13,87,64,40,29.99,29.88,11,6,5,0.00
2013-3-23,28,24,20,24,17,7,91,74,52,30.13,30.00,5,2,4,0.00
2013-3-24,40,28,17,20,13,10,89,57,31,30.14,30.08,8,2,0,0.00
2013-3-25,52,36,19,24,15,9,75,45,22,30.14,30.03,2,1,0,0.00
2013-3-26,62,47,29,24,18,9,74,38,12,30.02,29.86,9,4,0,0.00
2013-3-27,64,49,28,25,19,11,81,39,13,30.02,29.94,4,2,4,0.00
2013-3-28,65,53,40,36,24,17,54,34,16,30.08,30.00,11,4,6,0.00
2013-3-29,64,50,36,33,30,28,74,48,26,30.17,30.09,10,3,4,0.00
2013-3-30,63,51,38,35,27,-100,69,47,26,30.18,30.10,11,2,0,0.00
2013-3-31,68,51,30,36,25,15,75,41,13,30.14,29.96,5,2,4,0.00
2013-4-1,53,45,38,39,37,32,91,74,44,30.01,29.94,7,3,10,0.00
2013-4-2,55,44,38,43,38,36,96,81,48,30.10,29.98,8,2,11,0.00
2013-4-3,62,48,35,43,36,31,93,67,33,30.18,30.10,5,1,0,0.00
2013-4-4,68,54,36,35,30,21,76,44,16,30.15,29.98,7,2,0,0.00
2013-4-5,58,51,43,42,36,26,91,57,29,30.04,29.94,12,2,4,0.00
2013-4-6,61,49,36,36,32,22,80,54,22,30.03,29.95,9,2,0,0.00
2013-4-7,63,50,34,34,26,14,80,45,15,29.98,29.66,7,2,0,0.00
2013-4-8,55,44,32,36,31,16,98,67,21,29.64,29.47,11,4,14,0.00
2013-4-9,34,30,25,30,21,19,100,73,52,30.08,29.67,8,2,1,0.00
2013-4-10,51,36,21,31,22,16,82,60,32,30.14,30.02,4,1,10,0.00
2013-4-11,54,42,37,40,33,27,90,71,35,30.01,29.91,6,1,0,0.00
2013-4-12,59,44,31,30,24,11,81,51,15,30.03,29.92,4,1,9,0.00
2013-4-13,67,50,35,36,27,22,68,45,19,29.92,29.58,16,7,0,0.00
2013-4-14,50,40,22,20,10,1,76,34,13,29.90,29.67,5,1,10,0.00
2013-4-15,47,39,29,32,27,14,97,66,37,29.76,29.64,5,1,9,0.00
2013-4-16,37,33,31,33,31,28,99,91,75,29.91,29.68,0,0,0,0.00
2013-4-17,41,34,26,27,19,9,93,57,27,30.13,29.90,8,2,0,0.00
2013-4-18,47,35,21,20,13,2,86,47,18,30.25,30.14,3,1,0,0.00
2013-4-19,55,41,24,28,21,17,79,48,26,30.25,30.02,5,1,0,0.00
2013-4-20,51,44,37,38,35,29,93,73,57,30.13,30.02,1,0,5,0.00
2013-4-21,61,47,31,34,28,21,84,52,22,30.15,29.99,6,1,5,0.00
2013-4-22,54,46,36,33,26,16,75,48,31,30.09,29.98,11,3,12,0.00
2013-4-23,51,38,26,22,15,5,80,45,18,30.19,30.08,0,0,0,0.00
2013-4-24,57,51,41,15,10,6,33,20,13,30.18,30.10,12,4,8,0.00
2013-4-25,65,48,29,23,15,3,72,33,9,5.25,40.00,10,5,5,0.00
2013-4-26,68,51,31,25,17,11,53,30,11,0.00,40.00,11,6,11,0.00
2013-4-27,72,57,38,26,21,17,55,28,14,0.00,40.00,8,5,8,0.00
2013-4-28,76,60,40,31,24,14,57,28,11,0.00,40.00,11,6,8,0.00
2013-4-29,74,59,41,32,27,22,61,34,14,0.00,40.00,12,7,10,0.00
2013-4-30,62,55,43,32,22,8,45,28,18,0.00,40.00,18,11,14,0.00
2013-5-1,48,38,27,17,7,-3,46,27,15,0.00,40.00,17,8,13,0.00
2013-5-2,60,43,22,14,10,4,64,30,12,0.00,40.00,8,5,14,0.00
2013-5-3,69,49,28,19,12,-2,59,28,6,0.00,40.00,7,5,6,0.00
2013-5-4,68,54,33,23,17,12,54,27,12,0.00,40.00,11,5,4,0.00
2013-5-5,74,60,43,32,23,14,63,28,10,0.00,40.00,13,6,11,0.00
2013-5-6,63,54,46,45,34,26,81,48,26,0.00,40.00,12,6,15,0.00
2013-5-7,65,48,35,42,36,29,90,70,26,0.00,40.00,13,7,14,0.00
2013-5-8,59,49,39,47,40,36,94,76,43,0.00,40.00,6,3,10,0.00
2013-5-9,70,57,41,47,39,34,94,57,27,0.00,40.00,16,8,5,0.00
2013-5-10,73,56,40,38,31,-100,85,48,19,0.00,40.00,13,6,11,0.00
2013-5-11,76,57,42,38,29,-100,74,44,16,0.00,40.00,9,5,10,0.00
2013-5-12,82,65,44,37,31,23,68,33,12,0.00,40.00,7,5,8,0.00
2013-5-13,86,70,50,45,32,25,55,29,11,0.00,40.00,7,5,7,0.00
2013-5-14,86,71,54,38,28,17,47,24,8,0.00,40.00,13,6,7,0.00
2013-5-15,83,67,54,38,27,20,43,25,11,0.00,40.00,13,5,9,0.00
2013-5-16,80,57,47,35,7,-100,62,26,10,0.00,40.00,18,8,4,0.00
2013-5-17,64,57,50,44,33,-100,67,45,26,0.00,40.00,11,6,15,0.00
2013-5-18,58,50,41,46,41,37,93,73,47,0.00,40.00,11,5,11,0.00
2013-5-19,54,46,37,43,39,34,92,79,55,0.00,40.00,8,4,5,0.00
2013-5-20,60,49,42,44,42,39,93,77,54,0.00,40.00,6,3,7,0.00
2013-5-21,73,56,39,43,35,19,92,55,13,0.00,40.00,7,5,14,0.00
2013-5-22,81,65,46,36,25,12,52,28,8,0.00,40.00,22,11,33,0.00
2013-5-23,77,57,38,35,28,8,76,41,9,0.00,40.00,18,9,32,0.00
2013-5-24,76,57,35,33,25,12,76,36,10,0.00,40.00,14,5,17,0.00
2013-5-25,80,65,46,28,20,10,48,22,8,0.00,40.00,14,8,25,0.00
2013-5-26,80,66,48,30,16,7,31,16,7,0.00,40.00,14,8,26,0.00
2013-5-27,74,62,42,38,27,15,59,30,11,0.00,40.00,10,5,19,0.00
2013-5-28,65,53,44,44,38,32,91,60,31,0.00,40.00,16,6,30,0.00
2013-5-29,60,50,38,44,39,29,95,70,30,0.00,40.00,11,5,19,0.00
2013-5-30,68,54,38,41,34,18,93,53,15,0.00,40.00,13,6,24,0.00
2013-5-31,68,55,39,37,27,13,77,40,13,0.00,40.00,14,7,22,0.00
2013-6-1,77,59,35,29,20,14,58,27,9,0.00,40.00,9,5,16,0.00
2013-6-2,89,69,44,29,22,13,55,22,6,0.00,40.00,14,6,27,0.00
2013-6-3,79,67,55,38,25,15,46,22,12,0.00,40.00,14,8,21,0.00
2013-6-4,83,65,43,34,27,20,61,28,10,0.00,40.00,19,6,22,0.00
2013-6-5,81,65,45,36,31,26,64,31,14,0.00,40.00,12,5,18,0.00
2013-6-6,85,68,46,34,28,22,55,28,10,0.00,40.00,17,6,23,0.00
2013-6-7,88,71,50,38,31,25,52,26,10,0.00,40.00,13,5,20,0.00
2013-6-8,87,71,52,39,33,26,54,28,12,0.00,40.00,18,7,23,0.00
2013-6-9,94,75,50,41,27,22,44,20,8,0.00,40.00,8,4,16,0.00
2013-6-10,92,79,64,37,20,9,32,13,5,0.00,40.00,15,9,25,0.00
2013-6-11,85,73,58,25,20,13,27,14,8,0.00,40.00,17,8,25,0.00
2013-6-12,88,74,58,32,25,19,34,18,9,0.00,40.00,16,7,35,0.00
2013-6-13,87,72,62,35,27,3,35,21,4,0.00,40.00,22,10,35,0.00
2013-6-14,77,62,45,36,29,23,53,32,14,0.00,40.00,18,10,23,0.00
2013-6-15,86,57,40,32,28,17,63,39,8,0.00,40.00,14,4,20,0.00
2013-6-16,87,66,52,26,18,2,30,20,4,0.00,40.00,13,6,24,0.00
2013-6-17,89,73,55,17,12,-2,22,11,3,0.00,40.00,8,4,20,0.00
2013-6-18,88,70,50,15,11,4,21,12,4,0.00,40.00,14,7,27,0.00
2013-6-19,79,68,58,21,16,10,24,14,8,0.00,40.00,21,14,39,0.00
2013-6-20,64,53,44,31,27,23,51,38,23,0.00,40.00,12,7,18,0.00
2013-6-22,77,68,55,33,30,23,44,25,13,0.00,40.00,13,7,19,0.00
2013-6-23,85,64,43,29,23,17,45,25,8,0.00,40.00,7,4,47,0.00
2013-6-24,81,68,60,38,27,22,35,22,12,0.00,40.00,18,9,30,0.00
2013-6-25,84,66,50,45,36,31,59,36,15,0.00,40.00,9,5,19,0.00
2013-6-26,93,78,59,40,34,30,44,23,11,0.00,40.00,8,5,19,0.00
2013-6-27,97,76,63,45,38,33,40,27,11,0.00,40.00,12,6,17,0.00
2013-6-28,98,82,64,46,38,32,43,23,10,0.00,40.00,12,5,19,0.00
2013-6-29,94,75,66,41,37,29,37,28,10,0.00,40.00,17,5,28,0.00
2013-6-30,95,80,66,39,35,31,31,21,14,0.00,40.00,11,6,21,0.00
2013-7-1,97,75,62,39,35,26,36,26,8,0.00,40.00,14,5,22,0.00
2013-7-2,97,77,62,43,37,29,38,26,9,0.00,40.00,17,6,21,0.00
2013-7-3,92,78,62,48,40,36,37,27,14,0.00,40.00,17,7,22,0.00
2013-7-4,91,79,68,57,49,44,66,36,22,0.00,40.00,21,8,33,0.00
2013-7-5,92,70,59,58,53,44,88,61,19,0.00,40.00,15,7,34,0.00
2013-7-6,87,70,61,58,53,42,84,60,23,0.00,40.00,12,6,22,0.00
2013-7-7,88,73,58,54,50,41,78,48,21,0.00,40.00,10,5,31,0.00
2013-7-8,91,70,56,54,47,31,75,48,12,0.00,40.00,12,4,14,0.00
2013-7-9,93,72,61,40,35,23,41,28,8,0.00,40.00,9,4,19,0.00
2013-7-10,75,58,60,34,15,-100,27,22,18,0.00,40.00,4,3,8,0.00
2013-7-11,86,73,63,60,45,30,86,43,18,0.00,40.00,23,6,23,0.00
2013-7-12,83,70,59,61,55,48,91,65,31,0.00,40.00,9,4,17,0.00
2013-7-13,88,76,61,56,49,42,71,42,20,0.00,40.00,16,6,28,0.00
2013-7-14,88,72,56,53,46,38,69,43,19,0.00,40.00,15,4,17,0.00
2013-7-15,85,72,62,47,45,43,54,39,24,0.00,40.00,20,4,29,0.00
2013-7-16,91,73,65,63,52,44,87,52,20,0.00,40.00,10,4,14,0.00
2013-7-17,87,72,63,62,57,49,92,63,27,0.00,40.00,16,4,24,0.00
2013-7-18,91,78,63,58,51,43,81,44,19,0.00,40.00,15,5,23,0.00
2013-7-19,94,74,62,54,47,31,71,44,12,0.00,40.00,13,5,17,0.00
2013-7-20,93,72,60,44,35,28,56,28,10,0.00,40.00,11,4,18,0.00
2013-7-21,96,73,62,40,34,32,36,26,12,0.00,40.00,24,5,10,0.00
2013-7-22,93,77,63,43,40,36,49,28,14,0.00,40.00,11,5,14,0.00
2013-7-23,86,72,64,43,40,37,41,32,19,0.00,40.00,8,4,10,0.00
2013-7-24,86,78,68,44,42,38,40,28,19,0.00,40.00,10,4,17,0.00
2013-7-25,92,73,61,47,43,34,61,37,13,0.00,40.00,12,4,19,0.00
2013-7-26,80,69,63,40,37,31,41,32,17,0.00,40.00,4,3,13,0.00
2013-7-27,80,72,62,60,50,44,92,49,28,0.00,40.00,12,5,20,0.00
2013-7-28,83,67,56,59,54,44,94,68,25,0.00,40.00,12,4,49,0.00
2013-7-29,84,67,60,56,51,44,84,60,25,0.00,40.00,19,5,14,0.00
2013-7-30,88,70,56,53,44,31,81,47,13,0.00,40.00,11,4,18,0.00
2013-7-31,92,81,61,42,35,28,49,22,10,0.00,40.00,8,5,18,0.00
2013-8-1,92,78,64,51,41,34,45,29,14,0.00,40.00,16,8,23,0.00
2013-8-2,90,76,59,51,38,25,54,30,11,0.00,40.00,13,6,19,0.00
2013-8-3,90,74,60,33,31,26,33,21,12,0.00,40.00,10,6,22,0.00
2013-8-4,90,78,64,38,34,27,33,21,11,0.00,40.00,11,6,22,0.00
2013-8-5,92,74,62,43,37,27,47,28,10,0.00,40.00,9,4,18,0.00
2013-8-6,91,76,64,36,32,27,30,20,10,0.00,40.00,18,5,19,0.00
2013-8-7,83,73,62,41,35,31,34,25,16,0.00,40.00,24,8,34,0.00
2013-8-8,84,70,62,45,38,27,48,34,17,0.00,40.00,8,4,25,0.00
2013-8-9,86,68,54,43,33,26,47,28,16,0.00,40.00,11,4,12,0.00
2013-8-10,84,71,54,41,36,33,52,30,16,0.00,40.00,10,5,23,0.00
2013-8-11,85,71,57,40,35,26,46,29,12,0.00,40.00,11,4,10,0.00
2013-8-25,79,67,53,54,49,44,85,57,30,0.00,40.00,15,7,24,0.00
2013-8-26,74,66,62,55,51,48,68,58,47,0.00,40.00,7,4,12,0.00
2013-8-27,72,66,61,55,54,52,74,64,53,0.00,40.00,10,4,8,0.00
2013-8-28,85,77,62,55,49,45,77,43,25,0.00,40.00,4,3,10,0.00
2013-8-29,91,69,58,54,51,43,80,59,19,0.00,40.00,4,3,8,0.00
2013-8-30,90,79,64,53,46,42,55,34,19,0.00,40.00,5,4,11,0.00
2013-8-31,80,66,64,54,44,-100,66,51,38,0.00,40.00,16,6,30,0.00
2013-9-1,82,70,63,62,58,55,85,68,40,0.00,40.00,9,4,16,0.00
2013-9-2,87,74,65,59,54,47,81,55,26,0.00,40.00,14,6,23,0.00
2013-9-3,86,71,58,58,52,48,75,54,28,0.00,40.00,13,4,19,0.00
2013-9-4,85,72,63,57,52,44,79,52,30,0.00,40.00,17,5,17,0.00
2013-9-5,90,72,59,55,50,40,81,52,18,0.00,40.00,11,5,22,0.00
2013-9-6,90,74,66,52,45,34,54,38,14,0.00,40.00,13,6,15,0.00
2013-9-21,83,62,53,42,26,-100,43,29,14,0.00,40.00,13,7,25,0.00
2013-9-22,65,60,48,42,37,29,62,44,25,0.00,40.00,15,6,27,0.00
2013-9-23,70,52,42,36,33,29,81,52,22,0.00,40.00,6,3,15,0.00
2013-9-24,80,57,42,29,24,10,59,35,7,0.00,40.00,21,8,28,0.00
2013-9-25,64,55,42,38,29,22,74,40,20,0.00,40.00,25,14,33,0.00
2013-9-26,58,47,40,37,34,27,89,62,31,0.00,40.00,12,8,15,0.01
2013-9-27,48,40,36,38,35,33,92,85,60,0.00,40.00,5,4,11,0.13
2013-10-2,74,60,47,40,32,24,58,38,17,0.00,40.00,15,6,31,0.00
2013-10-3,54,47,38,40,27,17,71,46,32,0.00,40.00,17,11,25,0.00
2013-10-4,45,39,32,32,27,25,91,64,46,0.00,40.00,11,7,18,0.00
2013-10-5,54,39,26,27,24,20,84,60,26,0.00,40.00,13,5,13,0.00
2013-10-6,65,45,30,29,26,23,74,53,20,0.00,40.00,8,4,13,0.00
2013-10-7,67,47,38,26,25,22,58,44,18,0.00,40.00,6,4,10,0.00
2013-10-8,68,56,47,27,19,10,45,26,11,0.00,40.00,10,6,19,0.00
2013-10-25,54,48,41,28,26,25,61,47,33,0.00,40.00,4,4,9,0.00
2013-10-26,44,33,33,27,8,-100,71,52,51,0.00,40.00,5,4,7,0.00
2013-10-27,55,55,55,26,26,26,33,33,33,0.00,40.00,6,6,14,0.00
2013-10-28,58,52,45,35,26,17,67,44,20,0.00,40.00,15,14,30,0.00
2013-10-29,37,36,36,31,30,30,82,80,77,0.00,40.00,3,3,11,0.00
2013-10-30,41,41,41,34,34,34,75,75,75,0.00,40.00,4,4,8,0.00
2013-10-31,48,42,34,31,27,23,88,57,37,0.00,40.00,5,4,11,0.00
2013-11-14,41,40,38,26,20,13,63,47,31,0.00,40.00,7,6,0,0.00
2013-11-15,36,36,36,34,34,34,94,94,94,0.00,40.00,8,8,0,0.00
2013-11-16,29,22,27,27,1,-100,94,74,92,0.00,40.00,5,4,9,0.00
2013-11-17,53,45,33,30,26,24,89,50,32,0.00,40.00,4,3,13,0.00
2013-11-18,31,29,27,24,24,23,87,81,76,0.00,40.00,6,5,6,0.00
2013-11-19,51,44,38,36,32,28,79,67,48,0.00,40.00,5,3,8,0.00
2013-11-28,38,32,28,26,23,20,75,68,54,0.00,40.00,5,4,5,0.00
2013-11-29,29,28,27,23,22,22,84,82,79,0.00,40.00,5,4,7,0.00
2013-11-30,44,33,31,28,12,-100,76,57,45,0.00,40.00,5,4,7,0.00
2013-12-1,26,26,26,22,22,22,86,86,86,0.00,40.00,6,6,8,0.00
2013-12-2,50,46,43,26,23,20,51,40,30,0.00,40.00,5,4,0,0.00
2013-12-3,25,22,19,24,21,18,96,95,94,0.00,40.00,14,13,19,0.00
2013-12-4,14,12,10,7,6,6,83,76,70,0.00,40.00,5,4,5,0.00
2013-12-11,23,7,-2,6,-2,-7,83,70,48,0.00,40.00,6,4,7,0.00
2013-12-12,22,6,1,13,1,-3,87,82,66,0.00,40.00,7,6,10,0.00
2013-12-13,17,16,14,12,12,11,86,82,79,0.00,40.00,6,6,10,0.00
2013-12-14,23,14,11,16,-10,-100,90,66,74,0.00,40.00,6,5,8,0.00
2013-12-15,9,9,9,6,6,6,88,88,88,0.00,40.00,8,8,9,0.00
2013-12-16,32,19,6,19,12,4,89,74,60,0.00,40.00,5,4,10,0.00
2013-12-17,12,12,11,9,9,9,92,91,90,0.00,40.00,7,6,11,0.00
2013-12-18,24,23,21,18,17,16,79,78,76,0.00,40.00,9,8,11,0.00
2013-12-19,37,34,30,35,32,30,98,92,82,0.00,40.00,8,6,9,0.00
2013-12-20,24,20,17,22,17,13,93,86,81,0.00,40.00,8,5,11,0.00
2013-12-25,21,16,10,10,8,5,79,70,60,0.00,40.00,6,6,9,0.00
2013-12-26,26,19,12,17,11,5,73,69,66,0.00,40.00,6,5,10,0.00
2013-12-28,27,18,27,18,-21,-100,68,45,68,0.00,40.00,10,7,18,0.00
2013-12-29,14,14,14,11,11,11,89,89,89,0.00,40.00,4,4,5,0.00
2013-12-30,24,24,24,14,14,14,66,66,66,0.00,40.00,8,8,9,0.00
2013-12-31,31,28,22,26,22,15,80,77,72,0.00,40.00,8,6,11,0.00
2014-1-1,34,25,22,23,18,15,85,76,65,0.00,40.00,8,6,11,0.00
2014-1-2,34,34,34,21,21,21,58,58,58,0.00,40.00,6,6,0,0.00